RJNY(METAR)
02/18 15:00
METAR RJNY 180600Z 15008KT 120V180 9999 FEW030 13/03 Q1022 RMK
1CU030 A3019=
戻る
トップページへ戻る
IMOC Co,.Ltd.